Time;durP1;ratioP1;P1;durP2;ratioP2;P2;SDS_P1;SDS_P2;PMS_P1;PMS_P2;Temp;Humidity;BMP_temperature;BMP_pressure;BME280_temperature;BME280_humidity;BME280_pressure;Samples;Min_cycle;Max_cycle;Signal;HPM_P1;HPM_P2
2024/01/29 00:01:19;;;;;;;7.17;2.83;;;;;;;;;;5021302;28;20034;-76
2024/01/29 00:03:45;;;;;;;5.53;2.50;;;;;;;;;;5029360;28;20056;-75
2024/01/29 00:06:10;;;;;;;7.00;2.80;;;;;;;;;;5029630;28;20047;-76
2024/01/29 00:08:36;;;;;;;6.57;2.60;;;;;;;;;;5009285;28;20053;-76
2024/01/29 00:11:01;;;;;;;10.30;2.63;;;;;;;;;;5027008;28;20021;-76
2024/01/29 00:13:26;;;;;;;5.40;2.80;;;;;;;;;;5020254;28;20047;-75
2024/01/29 00:15:51;;;;;;;7.10;2.90;;;;;;;;;;5043897;28;20022;-76
2024/01/29 00:18:17;;;;;;;4.90;2.47;;;;;;;;;;5010754;28;20041;-76
2024/01/29 00:20:42;;;;;;;6.87;2.60;;;;;;;;;;5018403;28;20113;-75
2024/01/29 00:23:07;;;;;;;6.77;2.80;;;;;;;;;;5024900;28;20045;-76
2024/01/29 00:25:32;;;;;;;6.13;2.70;;;;;;;;;;5030361;28;20155;-83
2024/01/29 00:27:58;;;;;;;6.10;2.60;;;;;;;;;;5029624;28;20021;-81
2024/01/29 00:30:23;;;;;;;6.83;2.80;;;;;;;;;;5029356;28;20025;-82
2024/01/29 00:32:48;;;;;;;6.20;2.67;;;;;;;;;;5031088;28;20036;-83
2024/01/29 00:35:14;;;;;;;6.70;2.87;;;;;;;;;;5025533;28;20049;-83
2024/01/29 00:37:39;;;;;;;4.97;2.57;;;;;;;;;;5031271;28;20044;-82
2024/01/29 00:40:05;;;;;;;5.80;2.60;;;;;;;;;;5030152;28;20071;-82
2024/01/29 00:42:30;;;;;;;6.27;2.70;;;;;;;;;;5031985;28;20024;-83
2024/01/29 00:44:55;;;;;;;6.63;2.97;;;;;;;;;;5030833;28;20021;-83
2024/01/29 00:47:20;;;;;;;6.30;2.80;;;;;;;;;;5030054;28;20018;-83
2024/01/29 00:49:46;;;;;;;7.47;2.67;;;;;;;;;;5030820;28;20029;-82
2024/01/29 00:52:11;;;;;;;5.07;2.47;;;;;;;;;;5027155;28;20022;-82
2024/01/29 00:54:37;;;;;;;6.13;2.53;;;;;;;;;;5026647;28;20025;-82
2024/01/29 00:57:03;;;;;;;5.73;2.57;;;;;;;;;;5025010;28;20028;-82
2024/01/29 00:59:28;;;;;;;6.17;2.60;;;;;;;;;;5028433;28;20052;-82
2024/01/29 01:01:54;;;;;;;6.13;2.77;;;;;;;;;;5021016;28;20033;-82
2024/01/29 01:04:20;;;;;;;5.20;2.37;;;;;;;;;;5025765;28;20076;-81
2024/01/29 01:06:45;;;;;;;5.70;2.60;;;;;;;;;;5032665;28;20029;-80
2024/01/29 01:09:11;;;;;;;6.53;2.77;;;;;;;;;;5017097;28;20426;-82
2024/01/29 01:11:36;;;;;;;6.57;2.80;;;;;;;;;;5017521;28;20490;-83
2024/01/29 01:14:02;;;;;;;7.17;2.50;;;;;;;;;;5020557;28;20034;-83
2024/01/29 01:16:27;;;;;;;6.07;2.40;;;;;;;;;;5023115;28;20018;-82
2024/01/29 01:18:53;;;;;;;7.00;2.57;;;;;;;;;;5028222;28;20371;-83
2024/01/29 01:21:19;;;;;;;5.43;2.60;;;;;;;;;;5030998;28;20518;-83
2024/01/29 01:23:44;;;;;;;5.40;2.47;;;;;;;;;;5023556;28;20132;-81
2024/01/29 01:26:09;;;;;;;5.87;2.73;;;;;;;;;;5026749;28;20148;-83
2024/01/29 01:28:35;;;;;;;5.90;2.83;;;;;;;;;;5028295;28;20025;-83
2024/01/29 01:31:00;;;;;;;7.53;2.73;;;;;;;;;;5024581;28;20383;-82
2024/01/29 01:33:26;;;;;;;6.83;3.23;;;;;;;;;;5025429;28;20028;-83
2024/01/29 01:35:51;;;;;;;5.97;2.73;;;;;;;;;;5032269;28;20164;-82
2024/01/29 01:38:16;;;;;;;6.40;3.10;;;;;;;;;;5022418;28;20081;-84
2024/01/29 01:40:41;;;;;;;7.77;3.10;;;;;;;;;;5030689;28;20438;-83
2024/01/29 01:43:13;;;;;;;5.37;2.67;;;;;;;;;;5028346;28;20466;-83
2024/01/29 01:45:39;;;;;;;5.13;2.87;;;;;;;;;;5030070;28;20029;-82
2024/01/29 01:48:04;;;;;;;7.37;3.00;;;;;;;;;;5029654;28;20063;-83
2024/01/29 01:50:29;;;;;;;6.50;3.13;;;;;;;;;;5027851;28;20096;-83
2024/01/29 01:52:55;;;;;;;5.93;2.67;;;;;;;;;;5029100;28;20029;-81
2024/01/29 01:55:20;;;;;;;6.30;2.70;;;;;;;;;;5027404;28;20026;-82
2024/01/29 01:57:45;;;;;;;5.47;2.80;;;;;;;;;;5028802;28;20053;-81
2024/01/29 02:00:11;;;;;;;5.63;2.90;;;;;;;;;;5008632;28;20383;-82
2024/01/29 02:02:36;;;;;;;7.43;2.90;;;;;;;;;;5019324;28;20057;-83
2024/01/29 02:05:02;;;;;;;7.03;2.97;;;;;;;;;;5022844;28;20025;-81
2024/01/29 02:07:27;;;;;;;6.47;2.83;;;;;;;;;;5030143;28;20334;-83
2024/01/29 02:09:53;;;;;;;8.00;2.60;;;;;;;;;;5030773;28;20016;-83
2024/01/29 02:12:20;;;;;;;5.57;2.63;;;;;;;;;;5029370;28;20033;-83
2024/01/29 02:14:49;;;;;;;5.63;2.90;;;;;;;;;;5028199;28;20025;-82
2024/01/29 02:17:14;;;;;;;7.70;3.30;;;;;;;;;;5019853;28;20056;-83
2024/01/29 02:19:40;;;;;;;7.00;2.80;;;;;;;;;;5027286;28;20374;-83
2024/01/29 02:22:05;;;;;;;6.00;3.23;;;;;;;;;;5030882;28;20017;-83
2024/01/29 02:24:30;;;;;;;9.73;3.50;;;;;;;;;;5024946;28;20045;-81
2024/01/29 02:26:55;;;;;;;5.73;3.10;;;;;;;;;;5027034;28;20040;-83
2024/01/29 02:29:21;;;;;;;8.03;2.90;;;;;;;;;;5022797;28;20028;-82
2024/01/29 02:31:46;;;;;;;6.23;2.73;;;;;;;;;;5032060;28;20026;-82
2024/01/29 02:34:11;;;;;;;5.43;2.73;;;;;;;;;;5030280;28;20030;-83
2024/01/29 02:36:36;;;;;;;7.20;3.00;;;;;;;;;;5029859;28;20017;-81
2024/01/29 02:39:02;;;;;;;5.30;2.90;;;;;;;;;;5026782;28;20550;-84
2024/01/29 02:41:28;;;;;;;6.93;3.07;;;;;;;;;;5026437;28;20318;-84
2024/01/29 02:43:53;;;;;;;6.40;2.93;;;;;;;;;;5028840;28;20482;-83
2024/01/29 02:46:18;;;;;;;5.43;2.67;;;;;;;;;;5026071;28;20032;-77
2024/01/29 02:48:43;;;;;;;6.17;2.80;;;;;;;;;;5025974;28;20021;-77
2024/01/29 02:51:09;;;;;;;5.37;2.90;;;;;;;;;;5027272;28;20100;-77
2024/01/29 02:53:34;;;;;;;4.97;2.60;;;;;;;;;;5027281;28;20429;-77
2024/01/29 02:55:59;;;;;;;6.77;2.80;;;;;;;;;;5028414;28;20036;-77
2024/01/29 02:58:24;;;;;;;6.07;3.10;;;;;;;;;;5024598;28;20071;-77
2024/01/29 03:00:50;;;;;;;4.93;2.93;;;;;;;;;;5023816;28;20559;-78
2024/01/29 03:03:15;;;;;;;5.97;2.73;;;;;;;;;;5028772;28;20032;-77
2024/01/29 03:05:40;;;;;;;5.17;2.53;;;;;;;;;;5026073;28;20521;-77
2024/01/29 03:08:06;;;;;;;9.03;2.90;;;;;;;;;;5039463;28;20014;-78
2024/01/29 03:10:32;;;;;;;6.73;3.00;;;;;;;;;;5023896;28;20025;-77
2024/01/29 03:12:57;;;;;;;7.73;3.20;;;;;;;;;;5022415;28;20052;-77
2024/01/29 03:15:23;;;;;;;5.70;2.90;;;;;;;;;;5023188;28;20040;-77
2024/01/29 03:17:48;;;;;;;5.63;2.70;;;;;;;;;;5023072;28;20501;-78
2024/01/29 03:20:14;;;;;;;5.57;2.90;;;;;;;;;;5027789;28;20021;-77
2024/01/29 03:22:39;;;;;;;6.20;2.80;;;;;;;;;;5023924;28;20030;-77
2024/01/29 03:25:05;;;;;;;5.73;2.87;;;;;;;;;;5017041;28;20335;-77
2024/01/29 03:27:30;;;;;;;7.73;3.30;;;;;;;;;;5016725;28;20398;-77
2024/01/29 03:29:55;;;;;;;4.43;2.60;;;;;;;;;;5025339;28;20032;-77
2024/01/29 03:32:20;;;;;;;5.07;2.77;;;;;;;;;;5029634;28;20347;-77
2024/01/29 03:34:46;;;;;;;5.60;2.80;;;;;;;;;;5028997;28;20482;-77
2024/01/29 03:37:12;;;;;;;5.20;2.60;;;;;;;;;;5024909;28;20010;-78
2024/01/29 03:39:38;;;;;;;5.90;2.70;;;;;;;;;;5023310;28;20405;-77
2024/01/29 03:42:03;;;;;;;5.27;2.77;;;;;;;;;;5029199;28;20139;-75
2024/01/29 03:44:28;;;;;;;6.17;2.77;;;;;;;;;;5029744;28;20057;-78
2024/01/29 03:46:54;;;;;;;6.57;3.00;;;;;;;;;;5029098;28;20537;-78
2024/01/29 03:49:19;;;;;;;7.70;3.17;;;;;;;;;;5027193;28;20028;-78
2024/01/29 03:51:44;;;;;;;6.33;3.50;;;;;;;;;;5029239;28;20021;-78
2024/01/29 03:54:09;;;;;;;5.10;2.57;;;;;;;;;;5030945;28;20044;-78
2024/01/29 03:56:35;;;;;;;5.87;2.90;;;;;;;;;;5030426;28;20072;-83
2024/01/29 03:59:00;;;;;;;5.93;2.80;;;;;;;;;;5043571;28;20033;-84
2024/01/29 04:01:26;;;;;;;6.03;2.90;;;;;;;;;;5028243;28;20587;-82
2024/01/29 04:03:52;;;;;;;6.60;3.03;;;;;;;;;;5025671;28;20052;-82
2024/01/29 04:06:17;;;;;;;8.23;2.93;;;;;;;;;;5032889;28;20107;-82
2024/01/29 04:08:42;;;;;;;8.70;3.33;;;;;;;;;;5030967;28;20029;-81
2024/01/29 04:11:07;;;;;;;7.00;3.00;;;;;;;;;;5030865;28;20604;-82
2024/01/29 04:13:35;;;;;;;7.30;3.07;;;;;;;;;;5033248;28;20025;-82
2024/01/29 04:16:01;;;;;;;5.97;3.03;;;;;;;;;;5029991;28;20101;-82
2024/01/29 04:18:26;;;;;;;5.33;2.87;;;;;;;;;;5030587;28;20141;-83
2024/01/29 04:20:52;;;;;;;6.90;2.70;;;;;;;;;;5031281;28;20025;-82
2024/01/29 04:23:17;;;;;;;5.93;2.93;;;;;;;;;;5028308;28;20049;-83
2024/01/29 04:25:42;;;;;;;7.00;2.93;;;;;;;;;;5029098;28;20036;-82
2024/01/29 04:28:07;;;;;;;5.70;2.97;;;;;;;;;;5031172;28;20047;-81
2024/01/29 04:30:33;;;;;;;7.53;2.70;;;;;;;;;;5030762;28;20575;-82
2024/01/29 04:32:58;;;;;;;5.60;2.93;;;;;;;;;;5031634;28;20014;-82
2024/01/29 04:35:23;;;;;;;6.63;3.03;;;;;;;;;;5026593;28;20022;-82
2024/01/29 04:37:48;;;;;;;7.70;2.80;;;;;;;;;;5029584;28;20022;-82
2024/01/29 04:40:14;;;;;;;6.10;2.90;;;;;;;;;;5028604;28;20405;-83
2024/01/29 04:42:39;;;;;;;5.83;2.63;;;;;;;;;;5030929;28;20030;-83
2024/01/29 04:45:05;;;;;;;6.30;2.77;;;;;;;;;;5032644;28;20025;-82
2024/01/29 04:47:30;;;;;;;7.10;2.83;;;;;;;;;;5032836;28;20025;-82
2024/01/29 04:49:55;;;;;;;5.90;3.00;;;;;;;;;;5033097;28;20427;-82
2024/01/29 04:52:21;;;;;;;4.43;2.40;;;;;;;;;;5033573;28;20036;-80
2024/01/29 04:54:46;;;;;;;6.00;2.80;;;;;;;;;;5030689;28;20033;-81
2024/01/29 04:57:11;;;;;;;5.53;2.50;;;;;;;;;;5025592;28;20101;-82
2024/01/29 04:59:36;;;;;;;8.27;2.80;;;;;;;;;;5025820;28;20032;-80
2024/01/29 05:02:02;;;;;;;6.03;2.70;;;;;;;;;;5038487;28;20017;-80
2024/01/29 05:04:27;;;;;;;5.20;2.60;;;;;;;;;;5028171;28;20088;-82
2024/01/29 05:06:52;;;;;;;6.53;2.60;;;;;;;;;;5007326;28;20045;-77
2024/01/29 05:09:17;;;;;;;5.60;2.60;;;;;;;;;;5026816;28;20025;-77
2024/01/29 05:11:43;;;;;;;7.27;2.90;;;;;;;;;;5027960;28;20121;-77
2024/01/29 05:14:08;;;;;;;6.50;3.03;;;;;;;;;;5025617;28;20441;-77
2024/01/29 05:16:35;;;;;;;5.60;2.87;;;;;;;;;;5025681;28;20027;-77
2024/01/29 05:19:00;;;;;;;6.77;2.70;;;;;;;;;;5026215;28;20435;-77
2024/01/29 05:21:25;;;;;;;7.23;2.73;;;;;;;;;;5026316;28;20096;-77
2024/01/29 05:23:50;;;;;;;6.63;2.80;;;;;;;;;;5019536;28;20132;-77
2024/01/29 05:26:16;;;;;;;5.60;2.53;;;;;;;;;;5031785;28;20026;-76
2024/01/29 05:28:41;;;;;;;6.27;2.60;;;;;;;;;;5027757;28;20194;-77
2024/01/29 05:31:06;;;;;;;5.63;2.70;;;;;;;;;;5041366;28;20033;-77
2024/01/29 05:33:32;;;;;;;7.30;2.80;;;;;;;;;;5021433;28;20087;-77
2024/01/29 05:35:57;;;;;;;9.13;2.73;;;;;;;;;;5010961;28;20472;-77
2024/01/29 05:38:22;;;;;;;7.50;2.80;;;;;;;;;;5023320;28;20521;-77
2024/01/29 05:40:47;;;;;;;4.97;2.90;;;;;;;;;;5028575;28;20030;-77
2024/01/29 05:43:13;;;;;;;6.83;3.17;;;;;;;;;;5024100;28;20037;-77
2024/01/29 05:45:38;;;;;;;6.50;2.80;;;;;;;;;;5028263;28;20429;-77
2024/01/29 05:48:07;;;;;;;5.27;2.60;;;;;;;;;;5024657;28;20040;-77
2024/01/29 05:50:32;;;;;;;6.37;2.70;;;;;;;;;;5021632;28;20026;-77
2024/01/29 05:52:57;;;;;;;5.97;2.60;;;;;;;;;;5018067;28;20035;-76
2024/01/29 05:55:23;;;;;;;6.43;2.77;;;;;;;;;;5017184;28;20584;-76
2024/01/29 05:57:49;;;;;;;5.37;2.83;;;;;;;;;;5017769;28;20037;-76
2024/01/29 06:00:15;;;;;;;5.70;2.80;;;;;;;;;;5027484;28;20079;-76
2024/01/29 06:02:43;;;;;;;6.20;3.00;;;;;;;;;;5027344;28;20033;-76
2024/01/29 06:05:10;;;;;;;5.77;2.77;;;;;;;;;;5019426;28;20116;-76
2024/01/29 06:07:35;;;;;;;5.83;2.97;;;;;;;;;;5026119;28;20033;-75
2024/01/29 06:10:00;;;;;;;5.80;2.70;;;;;;;;;;5027423;28;20121;-75
2024/01/29 06:12:25;;;;;;;6.43;2.93;;;;;;;;;;5026788;28;20018;-73
2024/01/29 06:14:51;;;;;;;7.13;3.00;;;;;;;;;;5022362;28;20037;-74
2024/01/29 06:17:16;;;;;;;6.40;3.07;;;;;;;;;;5022667;28;20025;-74
2024/01/29 06:19:41;;;;;;;6.10;2.97;;;;;;;;;;5023608;28;20062;-74
2024/01/29 06:22:06;;;;;;;6.63;3.13;;;;;;;;;;5022816;28;20429;-73
2024/01/29 06:24:32;;;;;;;5.43;2.77;;;;;;;;;;5020746;28;20065;-72
2024/01/29 06:26:57;;;;;;;7.47;3.10;;;;;;;;;;5023499;28;20064;-73
2024/01/29 06:29:22;;;;;;;4.97;2.70;;;;;;;;;;5022827;28;20033;-74
2024/01/29 06:31:47;;;;;;;5.87;2.60;;;;;;;;;;5023166;28;20030;-74
2024/01/29 06:34:12;;;;;;;6.23;2.60;;;;;;;;;;5022556;28;20037;-73
2024/01/29 06:36:38;;;;;;;6.53;2.50;;;;;;;;;;5020588;28;20466;-74
2024/01/29 06:39:03;;;;;;;5.53;2.67;;;;;;;;;;5019375;28;20449;-74
2024/01/29 06:41:29;;;;;;;5.23;2.40;;;;;;;;;;5019748;28;20021;-74
2024/01/29 06:43:54;;;;;;;8.17;3.17;;;;;;;;;;5018087;28;20052;-74
2024/01/29 06:46:20;;;;;;;7.83;3.00;;;;;;;;;;5019209;28;20062;-74
2024/01/29 06:48:46;;;;;;;6.47;3.00;;;;;;;;;;5016938;28;20030;-74
2024/01/29 06:51:11;;;;;;;4.43;2.40;;;;;;;;;;5015705;28;20037;-73
2024/01/29 06:53:37;;;;;;;6.93;3.40;;;;;;;;;;5018150;28;20041;-74
2024/01/29 06:56:04;;;;;;;5.80;2.87;;;;;;;;;;5015774;28;20470;-74
2024/01/29 06:58:30;;;;;;;7.13;2.70;;;;;;;;;;5016898;28;20605;-74
2024/01/29 07:00:55;;;;;;;5.50;2.80;;;;;;;;;;5018947;28;20101;-74
2024/01/29 07:03:21;;;;;;;5.43;2.70;;;;;;;;;;5021763;28;20022;-74
2024/01/29 07:05:49;;;;;;;8.50;2.70;;;;;;;;;;5016248;28;20038;-74
2024/01/29 07:08:15;;;;;;;5.57;3.07;;;;;;;;;;5026940;28;20048;-74
2024/01/29 07:10:41;;;;;;;4.87;2.63;;;;;;;;;;5014804;28;20033;-74
2024/01/29 07:13:06;;;;;;;4.80;2.53;;;;;;;;;;5025153;28;20038;-74
2024/01/29 07:15:31;;;;;;;7.17;2.60;;;;;;;;;;5017126;28;20025;-74
2024/01/29 07:17:57;;;;;;;5.97;3.07;;;;;;;;;;5024643;28;20025;-73
2024/01/29 07:20:22;;;;;;;5.03;2.57;;;;;;;;;;5026233;28;20029;-73
2024/01/29 07:22:47;;;;;;;6.93;3.00;;;;;;;;;;5021965;28;20045;-73
2024/01/29 07:25:12;;;;;;;6.30;2.43;;;;;;;;;;5018546;28;20034;-73
2024/01/29 07:27:38;;;;;;;5.67;2.70;;;;;;;;;;5023053;28;20037;-73
2024/01/29 07:30:03;;;;;;;5.83;2.50;;;;;;;;;;5021174;28;20029;-74
2024/01/29 07:32:31;;;;;;;5.97;2.73;;;;;;;;;;5019583;28;20029;-73
2024/01/29 07:35:03;;;;;;;4.97;2.67;;;;;;;;;;5021599;28;20026;-73
2024/01/29 07:37:29;;;;;;;7.43;2.70;;;;;;;;;;5022533;28;20024;-73
2024/01/29 07:39:54;;;;;;;5.97;3.00;;;;;;;;;;5022880;28;20022;-73
2024/01/29 07:42:20;;;;;;;4.67;2.40;;;;;;;;;;5022167;28;20025;-73
2024/01/29 07:44:45;;;;;;;7.47;2.90;;;;;;;;;;5021218;28;20034;-74
2024/01/29 07:47:11;;;;;;;6.47;2.93;;;;;;;;;;5017608;28;20544;-73
2024/01/29 07:49:36;;;;;;;5.53;2.57;;;;;;;;;;5018218;28;20025;-73
2024/01/29 07:52:01;;;;;;;5.50;2.87;;;;;;;;;;5020065;28;20497;-74
2024/01/29 07:54:26;;;;;;;5.17;2.50;;;;;;;;;;5022629;28;20026;-73
2024/01/29 07:56:52;;;;;;;4.83;2.33;;;;;;;;;;5017138;28;20437;-72
2024/01/29 07:59:17;;;;;;;6.90;2.67;;;;;;;;;;5016283;28;20033;-74
2024/01/29 08:01:44;;;;;;;5.53;2.10;;;;;;;;;;5015047;28;20038;-74
2024/01/29 08:04:10;;;;;;;4.60;2.17;;;;;;;;;;5018240;28;20060;-74
2024/01/29 08:06:35;;;;;;;4.60;2.10;;;;;;;;;;5027706;28;20033;-74
2024/01/29 08:09:00;;;;;;;5.43;2.40;;;;;;;;;;5022055;28;20065;-74
2024/01/29 08:11:25;;;;;;;4.77;2.10;;;;;;;;;;5017411;28;20017;-74
2024/01/29 08:13:51;;;;;;;4.70;2.20;;;;;;;;;;5016808;28;20537;-74
2024/01/29 08:16:16;;;;;;;5.60;2.27;;;;;;;;;;5023671;28;20030;-74
2024/01/29 08:18:41;;;;;;;5.80;2.30;;;;;;;;;;5013987;28;20471;-74
2024/01/29 08:21:06;;;;;;;5.10;2.17;;;;;;;;;;5016813;28;20029;-74
2024/01/29 08:23:32;;;;;;;4.73;2.10;;;;;;;;;;5020780;28;20415;-74
2024/01/29 08:25:57;;;;;;;3.83;1.77;;;;;;;;;;5028884;28;20021;-74
2024/01/29 08:28:22;;;;;;;4.67;2.07;;;;;;;;;;5028472;28;20553;-76
2024/01/29 08:30:47;;;;;;;4.97;2.10;;;;;;;;;;5026032;28;20455;-76
2024/01/29 08:33:13;;;;;;;4.70;2.13;;;;;;;;;;5022611;28;20025;-76
2024/01/29 08:35:38;;;;;;;5.67;2.30;;;;;;;;;;5025455;28;20094;-75
2024/01/29 08:38:04;;;;;;;5.53;2.20;;;;;;;;;;5024138;28;20033;-76
2024/01/29 08:40:30;;;;;;;4.97;2.37;;;;;;;;;;5024494;28;20029;-76
2024/01/29 08:42:55;;;;;;;4.83;2.30;;;;;;;;;;5021066;28;20611;-75
2024/01/29 08:45:21;;;;;;;6.40;2.67;;;;;;;;;;5023942;28;20060;-76
2024/01/29 08:47:46;;;;;;;6.83;2.37;;;;;;;;;;5022498;28;20498;-76
2024/01/29 08:50:11;;;;;;;5.23;2.43;;;;;;;;;;5021530;28;20706;-76
2024/01/29 08:52:37;;;;;;;4.53;2.10;;;;;;;;;;5025062;28;20108;-76
2024/01/29 08:55:02;;;;;;;4.97;2.50;;;;;;;;;;5024764;28;20036;-76
2024/01/29 08:57:28;;;;;;;5.07;2.30;;;;;;;;;;5023768;28;20026;-76
2024/01/29 08:59:53;;;;;;;5.67;2.50;;;;;;;;;;5022540;28;20021;-76
2024/01/29 09:02:18;;;;;;;6.00;2.30;;;;;;;;;;5021584;28;20045;-76
2024/01/29 09:04:44;;;;;;;5.73;2.23;;;;;;;;;;5027287;28;20025;-76
2024/01/29 09:07:09;;;;;;;6.43;2.40;;;;;;;;;;5020839;28;20529;-76
2024/01/29 09:09:35;;;;;;;5.07;2.50;;;;;;;;;;5017628;28;20061;-76
2024/01/29 09:12:00;;;;;;;5.93;2.40;;;;;;;;;;5015811;28;20327;-76
2024/01/29 09:14:27;;;;;;;4.70;2.40;;;;;;;;;;5020106;28;20076;-76
2024/01/29 09:16:53;;;;;;;4.80;2.47;;;;;;;;;;5020727;28;20034;-76
2024/01/29 09:19:20;;;;;;;6.17;2.60;;;;;;;;;;5016364;28;20030;-76
2024/01/29 09:21:49;;;;;;;5.67;2.60;;;;;;;;;;5021283;28;20036;-76
2024/01/29 09:24:14;;;;;;;6.47;2.80;;;;;;;;;;5022884;28;20059;-76
2024/01/29 09:26:40;;;;;;;5.87;2.60;;;;;;;;;;5019500;28;20022;-76
2024/01/29 09:29:05;;;;;;;5.93;2.70;;;;;;;;;;5017874;28;20311;-75
2024/01/29 09:31:30;;;;;;;5.17;2.57;;;;;;;;;;5018472;28;20031;-76
2024/01/29 09:33:55;;;;;;;8.00;2.70;;;;;;;;;;5021785;28;20029;-75
2024/01/29 09:36:21;;;;;;;6.83;2.93;;;;;;;;;;5026801;28;20353;-75
2024/01/29 09:38:46;;;;;;;6.33;2.77;;;;;;;;;;5025649;28;20025;-74
2024/01/29 09:41:11;;;;;;;5.73;2.90;;;;;;;;;;5023661;28;20032;-74
2024/01/29 09:43:39;;;;;;;6.30;2.90;;;;;;;;;;5025639;28;20436;-74
2024/01/29 09:46:04;;;;;;;7.53;3.27;;;;;;;;;;5024382;28;20017;-74
2024/01/29 09:48:31;;;;;;;6.00;3.00;;;;;;;;;;5023629;28;20037;-74
2024/01/29 09:50:58;;;;;;;5.37;2.83;;;;;;;;;;5023484;28;20018;-74
2024/01/29 09:53:23;;;;;;;7.60;3.07;;;;;;;;;;5024677;28;20079;-74
2024/01/29 09:55:50;;;;;;;5.30;3.00;;;;;;;;;;5022416;28;20112;-74
2024/01/29 09:58:15;;;;;;;8.83;3.10;;;;;;;;;;5022285;28;20021;-75
2024/01/29 10:00:40;;;;;;;7.53;3.07;;;;;;;;;;5022849;28;20029;-74
2024/01/29 10:03:07;;;;;;;6.53;3.40;;;;;;;;;;5020602;28;20593;-75
2024/01/29 10:05:33;;;;;;;7.27;3.10;;;;;;;;;;5024367;28;20014;-74
2024/01/29 10:07:58;;;;;;;8.93;3.20;;;;;;;;;;5019925;28;20025;-74
2024/01/29 10:10:24;;;;;;;6.70;3.27;;;;;;;;;;5020180;28;20426;-74
2024/01/29 10:12:49;;;;;;;7.03;3.23;;;;;;;;;;5025243;28;20544;-74
2024/01/29 10:15:15;;;;;;;5.73;3.23;;;;;;;;;;5018807;28;20076;-74
2024/01/29 10:17:40;;;;;;;6.97;3.30;;;;;;;;;;5015529;28;20065;-74
2024/01/29 10:20:16;;;;;;;6.27;3.47;;;;;;;;;;5020504;28;20038;-74
2024/01/29 10:22:42;;;;;;;7.37;3.30;;;;;;;;;;5025665;28;20050;-74
2024/01/29 10:25:09;;;;;;;5.40;3.03;;;;;;;;;;5018427;28;20452;-74
2024/01/29 10:27:35;;;;;;;7.23;2.97;;;;;;;;;;5016417;28;20033;-75
2024/01/29 10:30:00;;;;;;;7.47;2.83;;;;;;;;;;5014394;28;20022;-74
2024/01/29 10:32:25;;;;;;;6.97;2.77;;;;;;;;;;5018969;28;20026;-75
2024/01/29 10:34:51;;;;;;;7.37;2.50;;;;;;;;;;5019779;28;20025;-75
2024/01/29 10:37:16;;;;;;;5.83;3.20;;;;;;;;;;5019320;28;20014;-75
2024/01/29 10:39:41;;;;;;;5.77;2.97;;;;;;;;;;5020425;28;20440;-75
2024/01/29 10:42:07;;;;;;;5.87;2.97;;;;;;;;;;5022484;28;20333;-74
2024/01/29 10:44:37;;;;;;;7.93;3.20;;;;;;;;;;5029973;28;20049;-75
2024/01/29 10:47:04;;;;;;;6.93;3.50;;;;;;;;;;5018245;28;20037;-78
2024/01/29 10:49:31;;;;;;;6.80;3.30;;;;;;;;;;5018537;28;20017;-79
2024/01/29 10:51:57;;;;;;;7.60;3.00;;;;;;;;;;5020453;28;20155;-78
2024/01/29 10:54:22;;;;;;;6.70;3.40;;;;;;;;;;5018356;28;20021;-77
2024/01/29 10:56:48;;;;;;;6.33;3.20;;;;;;;;;;5025021;28;20032;-78
2024/01/29 10:59:15;;;;;;;7.03;3.50;;;;;;;;;;5021968;28;20025;-77
2024/01/29 11:01:41;;;;;;;6.03;3.03;;;;;;;;;;5021978;28;20017;-78
2024/01/29 11:04:08;;;;;;;6.30;2.90;;;;;;;;;;5021908;28;20040;-79
2024/01/29 11:06:41;;;;;;;6.80;3.20;;;;;;;;;;5021366;28;20143;-78
2024/01/29 11:09:09;;;;;;;6.23;3.30;;;;;;;;;;5018652;28;20380;-78
2024/01/29 11:11:35;;;;;;;7.43;3.27;;;;;;;;;;5020070;28;20501;-79
2024/01/29 11:14:01;;;;;;;13.53;3.17;;;;;;;;;;5020541;28;20052;-78
2024/01/29 11:16:27;;;;;;;7.00;3.20;;;;;;;;;;5020895;28;20080;-78
2024/01/29 11:18:53;;;;;;;6.80;3.30;;;;;;;;;;5021152;28;20026;-79
2024/01/29 11:21:23;;;;;;;6.57;3.63;;;;;;;;;;5023543;28;20072;-78
2024/01/29 11:23:52;;;;;;;8.57;3.70;;;;;;;;;;5022830;28;20052;-78
2024/01/29 11:26:18;;;;;;;6.60;3.57;;;;;;;;;;5032307;28;20029;-79
2024/01/29 11:28:44;;;;;;;9.30;3.67;;;;;;;;;;5020636;28;20037;-78
2024/01/29 11:31:11;;;;;;;7.40;3.30;;;;;;;;;;5024617;28;20413;-78
2024/01/29 11:33:37;;;;;;;6.27;3.37;;;;;;;;;;5027939;28;20026;-78
2024/01/29 11:36:11;;;;;;;7.27;3.73;;;;;;;;;;5024920;28;20113;-78
2024/01/29 11:38:36;;;;;;;7.90;3.77;;;;;;;;;;5020941;28;20080;-77
2024/01/29 11:41:02;;;;;;;6.97;3.60;;;;;;;;;;5019600;28;20029;-79
2024/01/29 11:43:27;;;;;;;7.20;3.77;;;;;;;;;;5014247;28;20018;-78
2024/01/29 11:45:54;;;;;;;7.83;3.50;;;;;;;;;;5015240;28;20034;-79
2024/01/29 11:48:25;;;;;;;6.30;3.47;;;;;;;;;;5006878;28;20483;-79
2024/01/29 11:50:55;;;;;;;7.33;3.97;;;;;;;;;;5020246;28;20025;-78
2024/01/29 11:53:27;;;;;;;7.53;3.93;;;;;;;;;;5019792;28;20029;-78
2024/01/29 11:55:53;;;;;;;7.17;3.80;;;;;;;;;;5022826;28;20040;-79
2024/01/29 11:58:19;;;;;;;7.23;3.80;;;;;;;;;;5004784;28;20029;-73
2024/01/29 12:00:45;;;;;;;8.70;4.13;;;;;;;;;;5023047;28;20064;-73
2024/01/29 12:03:12;;;;;;;8.43;4.13;;;;;;;;;;5028253;28;20124;-72
2024/01/29 12:05:37;;;;;;;12.60;5.10;;;;;;;;;;5024845;28;20076;-73
2024/01/29 12:08:03;;;;;;;10.23;5.27;;;;;;;;;;5024902;28;20029;-73
2024/01/29 12:10:28;;;;;;;10.43;6.30;;;;;;;;;;5012713;28;20017;-73
2024/01/29 12:12:53;;;;;;;10.60;6.33;;;;;;;;;;5026678;28;20363;-73
2024/01/29 12:15:19;;;;;;;8.67;5.10;;;;;;;;;;5026005;28;20113;-73
2024/01/29 12:17:46;;;;;;;7.50;4.63;;;;;;;;;;5021743;28;20026;-72
2024/01/29 12:20:12;;;;;;;9.23;4.90;;;;;;;;;;5023247;28;20033;-72
2024/01/29 12:22:41;;;;;;;7.97;4.63;;;;;;;;;;5023013;28;20045;-73
2024/01/29 12:25:08;;;;;;;8.50;4.43;;;;;;;;;;5024693;28;20474;-73
2024/01/29 12:27:34;;;;;;;7.43;4.30;;;;;;;;;;5025214;28;20446;-73
2024/01/29 12:29:59;;;;;;;8.57;4.33;;;;;;;;;;5027397;28;20067;-73
2024/01/29 12:32:25;;;;;;;10.53;4.37;;;;;;;;;;5021038;28;20376;-74
2024/01/29 12:34:50;;;;;;;8.83;4.40;;;;;;;;;;5020744;28;20058;-74
2024/01/29 12:37:21;;;;;;;10.50;4.60;;;;;;;;;;5025356;28;20035;-74
2024/01/29 12:39:53;;;;;;;14.30;4.90;;;;;;;;;;5020813;28;20459;-74
2024/01/29 12:42:18;;;;;;;9.50;4.70;;;;;;;;;;5019139;28;20022;-74
2024/01/29 12:44:44;;;;;;;7.20;4.17;;;;;;;;;;5025325;28;20441;-73
2024/01/29 12:47:12;;;;;;;8.37;4.17;;;;;;;;;;5015054;28;20040;-73
2024/01/29 12:49:38;;;;;;;8.20;4.80;;;;;;;;;;5019421;28;20446;-74
2024/01/29 12:52:03;;;;;;;11.20;5.43;;;;;;;;;;5024601;28;20060;-73
2024/01/29 12:54:28;;;;;;;9.97;5.40;;;;;;;;;;5019752;28;20084;-73
2024/01/29 12:56:55;;;;;;;9.33;5.00;;;;;;;;;;5017679;28;20391;-74
2024/01/29 12:59:20;;;;;;;9.17;4.70;;;;;;;;;;5024935;28;20018;-73
2024/01/29 13:01:45;;;;;;;8.63;4.77;;;;;;;;;;5021717;28;20033;-74
2024/01/29 13:04:11;;;;;;;13.50;4.93;;;;;;;;;;5025512;28;20063;-73
2024/01/29 13:06:37;;;;;;;8.40;4.87;;;;;;;;;;5020028;28;20058;-74
2024/01/29 13:09:03;;;;;;;12.83;4.97;;;;;;;;;;5026069;28;20088;-73
2024/01/29 13:11:29;;;;;;;11.40;5.10;;;;;;;;;;5025597;28;20032;-73
2024/01/29 13:13:54;;;;;;;10.23;4.93;;;;;;;;;;5027318;28;20057;-74
2024/01/29 13:16:19;;;;;;;8.87;4.97;;;;;;;;;;5021647;28;20029;-73
2024/01/29 13:18:44;;;;;;;9.07;5.33;;;;;;;;;;5028353;28;20302;-73
2024/01/29 13:21:10;;;;;;;9.23;4.87;;;;;;;;;;5016695;28;20073;-73
2024/01/29 13:23:35;;;;;;;8.20;4.57;;;;;;;;;;5024019;28;20061;-73
2024/01/29 13:26:00;;;;;;;10.27;5.50;;;;;;;;;;5021854;28;20061;-73
2024/01/29 13:28:26;;;;;;;12.17;6.87;;;;;;;;;;5022167;28;20064;-74
2024/01/29 13:30:51;;;;;;;11.93;6.37;;;;;;;;;;5024908;28;20113;-73
2024/01/29 13:33:17;;;;;;;9.03;5.33;;;;;;;;;;5023728;28;20025;-73
2024/01/29 13:35:42;;;;;;;12.37;6.70;;;;;;;;;;5018686;28;20034;-73
2024/01/29 13:38:07;;;;;;;11.00;6.00;;;;;;;;;;5023237;28;20390;-74
2024/01/29 13:40:32;;;;;;;10.67;5.73;;;;;;;;;;5005613;28;20069;-73
2024/01/29 13:42:58;;;;;;;11.27;5.73;;;;;;;;;;5018506;28;20105;-74
2024/01/29 13:45:23;;;;;;;11.23;5.20;;;;;;;;;;5019232;28;20030;-75
2024/01/29 13:47:52;;;;;;;10.00;5.20;;;;;;;;;;5021677;28;20394;-75
2024/01/29 13:50:17;;;;;;;13.00;5.67;;;;;;;;;;5022491;28;20029;-75
2024/01/29 13:52:42;;;;;;;10.10;6.03;;;;;;;;;;5015345;28;20505;-76
2024/01/29 13:55:09;;;;;;;11.00;6.00;;;;;;;;;;5011633;28;20398;-75
2024/01/29 13:57:34;;;;;;;9.20;5.30;;;;;;;;;;5014837;28;20085;-75
2024/01/29 14:00:03;;;;;;;10.50;6.13;;;;;;;;;;5019925;28;20033;-75
2024/01/29 14:02:29;;;;;;;11.37;5.57;;;;;;;;;;5024603;28;20474;-75
2024/01/29 14:04:55;;;;;;;17.83;10.80;;;;;;;;;;5008872;28;20033;-75
2024/01/29 14:07:20;;;;;;;16.47;7.97;;;;;;;;;;5005873;28;20089;-75
2024/01/29 14:09:46;;;;;;;11.83;6.87;;;;;;;;;;5023325;28;20040;-75
2024/01/29 14:12:12;;;;;;;14.73;7.50;;;;;;;;;;5016837;28;20487;-75
2024/01/29 14:14:37;;;;;;;10.97;5.57;;;;;;;;;;5018775;28;20087;-75
2024/01/29 14:17:02;;;;;;;12.57;6.77;;;;;;;;;;5017692;28;20025;-75
2024/01/29 14:19:27;;;;;;;11.37;5.60;;;;;;;;;;5020035;28;20060;-81
2024/01/29 14:21:53;;;;;;;12.33;6.00;;;;;;;;;;5023897;28;20029;-79
2024/01/29 14:24:18;;;;;;;11.17;5.70;;;;;;;;;;5023461;28;20529;-81
2024/01/29 14:26:44;;;;;;;10.70;5.70;;;;;;;;;;5023628;28;20167;-81
2024/01/29 14:29:09;;;;;;;8.93;5.43;;;;;;;;;;5017993;28;20014;-81
2024/01/29 14:31:34;;;;;;;9.07;5.57;;;;;;;;;;5023893;28;20022;-80